createdAt,value
2018-12-26T00:00:55.415Z,17.60
2018-12-26T00:03:04.131Z,15.80
2018-12-26T00:04:05.121Z,17.10
2018-12-26T00:05:05.132Z,18.80
2018-12-26T00:06:05.092Z,18.00
2018-12-26T00:07:05.869Z,18.40
2018-12-26T00:08:05.067Z,17.90
2018-12-26T00:09:05.054Z,17.80
2018-12-26T00:10:05.322Z,19.30
2018-12-26T00:11:05.045Z,19.70
2018-12-26T00:12:05.028Z,17.20
2018-12-26T00:13:05.020Z,15.90
2018-12-26T00:14:05.006Z,18.80
2018-12-26T00:15:05.002Z,19.90
2018-12-26T00:16:05.002Z,17.30
2018-12-26T00:17:04.971Z,15.70
2018-12-26T00:18:04.957Z,16.70
2018-12-26T00:19:04.950Z,17.40
2018-12-26T00:20:04.986Z,15.90
2018-12-26T00:21:04.946Z,17.60
2018-12-26T00:22:04.923Z,17.00
2018-12-26T00:23:04.907Z,14.80
2018-12-26T00:24:04.943Z,16.30
2018-12-26T00:25:04.900Z,15.40
2018-12-26T00:26:04.909Z,17.60
2018-12-26T00:27:04.873Z,17.20
2018-12-26T00:28:04.849Z,15.80
2018-12-26T00:29:04.838Z,16.70
2018-12-26T00:30:04.859Z,14.70
2018-12-26T00:31:04.854Z,16.20
2018-12-26T00:32:04.826Z,16.20
2018-12-26T00:33:04.805Z,16.80
2018-12-26T00:34:04.791Z,16.50
2018-12-26T00:35:04.772Z,16.10
2018-12-26T00:36:04.900Z,15.60
2018-12-26T00:37:04.758Z,17.30
2018-12-26T00:38:04.751Z,17.50
2018-12-26T00:39:04.733Z,15.10
2018-12-26T00:40:04.731Z,16.80
2018-12-26T00:41:04.744Z,16.00
2018-12-26T00:42:04.710Z,18.60
2018-12-26T00:43:04.688Z,16.60
2018-12-26T00:44:04.686Z,15.80
2018-12-26T00:45:04.664Z,16.90
2018-12-26T00:46:04.912Z,17.50
2018-12-26T00:47:04.651Z,17.20
2018-12-26T00:48:04.642Z,18.10
2018-12-26T00:49:04.624Z,17.30
2018-12-26T00:50:04.617Z,16.20
2018-12-26T00:51:04.623Z,18.60
2018-12-26T00:52:04.599Z,18.50
2018-12-26T00:53:04.585Z,19.20
2018-12-26T00:54:04.571Z,18.50
2018-12-26T00:55:04.564Z,18.20
2018-12-26T00:56:10.421Z,18.00
2018-12-26T00:57:04.547Z,19.50
2018-12-26T00:58:04.528Z,17.30
2018-12-26T00:59:04.522Z,20.90
2018-12-26T01:00:04.532Z,18.60
2018-12-26T01:01:04.523Z,18.30
2018-12-26T01:02:04.485Z,17.50
2018-12-26T01:03:04.475Z,18.40
2018-12-26T01:04:04.471Z,18.30
2018-12-26T01:05:04.445Z,18.90
2018-12-26T01:06:04.468Z,20.70
2018-12-26T01:07:04.427Z,22.40
2018-12-26T01:08:04.421Z,20.50
2018-12-26T01:09:04.404Z,19.20
2018-12-26T01:10:04.403Z,19.40
2018-12-26T01:11:04.406Z,20.80
2018-12-26T01:12:04.387Z,21.00
2018-12-26T01:13:04.362Z,20.20
2018-12-26T01:14:04.350Z,19.80
2018-12-26T01:15:04.337Z,22.90
2018-12-26T01:16:04.352Z,21.00
2018-12-26T01:17:04.328Z,19.70
2018-12-26T01:18:04.306Z,21.50
2018-12-26T01:19:04.314Z,20.90
2018-12-26T01:20:04.288Z,21.70
2018-12-26T01:21:04.306Z,22.10
2018-12-26T01:22:04.277Z,20.40
2018-12-26T01:23:04.257Z,22.10
2018-12-26T01:24:04.251Z,21.60
2018-12-26T01:25:04.238Z,21.10
2018-12-26T01:26:04.258Z,21.00
2018-12-26T01:27:04.217Z,23.50
2018-12-26T01:28:04.206Z,21.50
2018-12-26T01:29:04.192Z,21.00
2018-12-26T01:30:04.210Z,20.30
2018-12-26T01:31:04.194Z,20.80
2018-12-26T01:32:04.172Z,23.10
2018-12-26T01:33:04.154Z,23.20
2018-12-26T01:34:04.134Z,22.50
2018-12-26T01:35:04.125Z,22.60
2018-12-26T01:36:04.151Z,20.90
2018-12-26T01:37:04.118Z,22.20
2018-12-26T01:38:04.098Z,23.90
2018-12-26T01:39:04.086Z,24.70
2018-12-26T01:40:04.072Z,22.10
2018-12-26T01:41:04.078Z,21.90
2018-12-26T01:42:04.053Z,22.20
2018-12-26T01:43:04.118Z,23.20
2018-12-26T01:44:04.032Z,22.70
2018-12-26T01:45:04.017Z,22.50
2018-12-26T01:46:04.013Z,24.90
2018-12-26T01:47:04.005Z,24.20
2018-12-26T01:48:03.979Z,22.40
2018-12-26T01:49:03.984Z,23.20
2018-12-26T01:50:03.969Z,22.20
2018-12-26T01:51:03.961Z,23.00
2018-12-26T01:52:04.208Z,21.10
2018-12-26T01:53:03.926Z,22.90
2018-12-26T01:54:03.926Z,23.30
2018-12-26T01:55:03.916Z,24.70
2018-12-26T01:56:03.906Z,24.40
2018-12-26T01:57:03.898Z,24.40
2018-12-26T01:58:03.925Z,23.30
2018-12-26T01:59:03.870Z,23.70
2018-12-26T02:00:03.903Z,23.50
2018-12-26T02:01:03.856Z,24.30
2018-12-26T02:02:03.841Z,23.60
2018-12-26T02:04:13.049Z,24.00
2018-12-26T02:05:14.012Z,26.00
2018-12-26T02:06:13.997Z,25.20
2018-12-26T02:07:13.992Z,24.60
2018-12-26T02:08:13.982Z,26.20
2018-12-26T02:09:14.007Z,24.00
2018-12-26T02:10:13.952Z,23.50
2018-12-26T02:11:13.947Z,25.80
2018-12-26T02:12:13.937Z,24.80
2018-12-26T02:13:13.925Z,23.20
2018-12-26T02:14:13.929Z,25.50
2018-12-26T02:15:13.916Z,25.40
2018-12-26T02:16:13.885Z,26.60
2018-12-26T02:17:14.756Z,28.00
2018-12-26T02:18:13.880Z,24.90
2018-12-26T02:19:13.875Z,26.50
2018-12-26T02:20:13.860Z,24.20
2018-12-26T02:21:13.841Z,28.00
2018-12-26T02:22:13.828Z,27.40
2018-12-26T02:23:13.813Z,29.50
2018-12-26T02:24:14.062Z,26.90
2018-12-26T02:25:13.803Z,28.00
2018-12-26T02:26:13.792Z,26.70
2018-12-26T02:27:13.774Z,28.10
2018-12-26T02:28:13.769Z,28.20
2018-12-26T02:29:13.768Z,27.60
2018-12-26T02:30:13.763Z,28.00
2018-12-26T02:31:13.733Z,28.00
2018-12-26T02:32:13.728Z,28.70
2018-12-26T02:33:13.719Z,27.30
2018-12-26T02:34:13.700Z,27.90
2018-12-26T02:35:13.715Z,27.40
2018-12-26T02:36:13.688Z,28.40
2018-12-26T02:37:13.681Z,27.50
2018-12-26T02:38:13.655Z,30.70
2018-12-26T02:39:13.656Z,27.60
2018-12-26T02:40:13.656Z,28.80
2018-12-26T02:41:13.647Z,27.10
2018-12-26T02:42:13.614Z,27.80
2018-12-26T02:43:13.610Z,29.10
2018-12-26T02:44:13.592Z,29.60
2018-12-26T02:45:13.843Z,30.10
2018-12-26T02:46:13.587Z,29.10
2018-12-26T02:47:13.567Z,31.10
2018-12-26T02:48:13.557Z,30.10
2018-12-26T02:49:13.539Z,31.90
2018-12-26T02:50:13.553Z,29.50
2018-12-26T02:51:13.517Z,30.90
2018-12-26T02:52:13.503Z,29.70
2018-12-26T02:53:13.505Z,27.00
2018-12-26T02:54:13.495Z,29.40
2018-12-26T02:55:13.542Z,31.20
2018-12-26T02:56:13.463Z,28.50
2018-12-26T02:57:13.454Z,28.60
2018-12-26T02:58:13.449Z,29.70
2018-12-26T02:59:13.436Z,29.80
2018-12-26T03:00:13.434Z,29.70
2018-12-26T03:01:13.409Z,31.70
2018-12-26T03:02:13.427Z,28.40
2018-12-26T03:03:13.385Z,29.80
2018-12-26T03:04:13.378Z,29.80
2018-12-26T03:05:13.407Z,29.70
2018-12-26T03:06:13.369Z,29.00
2018-12-26T03:07:13.345Z,30.80
2018-12-26T03:08:13.338Z,28.50
2018-12-26T03:09:13.331Z,28.10
2018-12-26T03:10:13.342Z,28.80
2018-12-26T03:11:13.317Z,30.00
2018-12-26T03:12:13.295Z,30.50
2018-12-26T03:13:13.294Z,28.00
2018-12-26T03:14:13.283Z,29.70
2018-12-26T03:15:13.542Z,31.30
2018-12-26T03:16:13.252Z,30.30
2018-12-26T03:17:13.234Z,30.20
2018-12-26T03:18:13.237Z,28.80
2018-12-26T03:19:13.225Z,30.00
2018-12-26T03:20:13.231Z,30.00
2018-12-26T03:21:13.211Z,29.20
2018-12-26T03:22:13.181Z,30.60
2018-12-26T03:23:13.191Z,28.80
2018-12-26T03:24:13.165Z,30.20
2018-12-26T03:25:13.206Z,29.90
2018-12-26T03:26:13.143Z,30.30
2018-12-26T03:27:13.135Z,31.70
2018-12-26T03:28:13.125Z,30.00
2018-12-26T03:29:13.117Z,29.60
2018-12-26T03:30:13.123Z,28.80
2018-12-26T03:31:13.095Z,33.10
2018-12-26T03:32:13.079Z,29.90
2018-12-26T03:33:13.068Z,30.90
2018-12-26T03:34:13.056Z,30.40
2018-12-26T03:35:13.063Z,29.90
2018-12-26T03:36:13.040Z,30.40
2018-12-26T03:37:13.020Z,30.70
2018-12-26T03:38:13.010Z,29.40
2018-12-26T03:39:13.008Z,29.70
2018-12-26T03:40:12.993Z,29.70
2018-12-26T03:41:13.017Z,29.30
2018-12-26T03:42:12.977Z,30.10
2018-12-26T03:43:12.961Z,28.40
2018-12-26T03:44:12.968Z,29.70
2018-12-26T03:45:12.942Z,28.90
2018-12-26T03:46:12.962Z,31.70
2018-12-26T03:47:12.929Z,29.90
2018-12-26T03:48:12.922Z,32.20
2018-12-26T03:49:12.893Z,28.50
2018-12-26T03:50:12.898Z,31.40
2018-12-26T03:51:12.913Z,30.50
2018-12-26T03:52:12.878Z,29.90
2018-12-26T03:53:12.852Z,31.70
2018-12-26T03:54:12.850Z,31.80
2018-12-26T03:55:12.827Z,33.00
2018-12-26T03:56:12.864Z,29.50
2018-12-26T03:57:12.842Z,30.40
2018-12-26T03:58:12.803Z,31.10
2018-12-26T03:59:12.792Z,31.40
2018-12-26T04:00:12.782Z,30.80
2018-12-26T04:01:12.788Z,31.30
2018-12-26T04:02:12.762Z,29.40
2018-12-26T04:03:12.756Z,31.80
2018-12-26T04:05:21.931Z,31.60
2018-12-26T04:06:23.038Z,33.00
2018-12-26T04:07:22.909Z,30.50
2018-12-26T04:08:22.899Z,29.60
2018-12-26T04:09:22.889Z,32.30
2018-12-26T04:10:22.875Z,30.60
2018-12-26T04:11:22.893Z,35.50
2018-12-26T04:12:22.861Z,30.70
2018-12-26T04:13:22.843Z,31.20
2018-12-26T04:14:22.836Z,32.00
2018-12-26T04:15:22.831Z,31.50
2018-12-26T04:16:22.836Z,32.50
2018-12-26T04:17:22.812Z,31.60
2018-12-26T04:18:22.792Z,29.60
2018-12-26T04:19:22.779Z,29.90
2018-12-26T04:20:22.781Z,31.80
2018-12-26T04:21:22.794Z,29.50
2018-12-26T04:22:22.753Z,32.10
2018-12-26T04:23:22.733Z,32.20
2018-12-26T04:24:22.731Z,29.50
2018-12-26T04:25:22.721Z,28.70
2018-12-26T04:26:22.964Z,32.90
2018-12-26T04:27:22.701Z,30.80
2018-12-26T04:28:22.680Z,29.80
2018-12-26T04:29:22.681Z,33.40
2018-12-26T04:30:22.666Z,29.70
2018-12-26T04:31:22.688Z,32.60
2018-12-26T04:32:22.655Z,31.40
2018-12-26T04:33:22.635Z,28.60
2018-12-26T04:34:22.641Z,31.10
2018-12-26T04:35:22.603Z,29.50
2018-12-26T04:36:22.625Z,29.10
2018-12-26T04:37:22.594Z,34.30
2018-12-26T04:38:22.572Z,30.60
2018-12-26T04:39:22.571Z,29.60
2018-12-26T04:40:22.557Z,30.40
2018-12-26T04:41:22.660Z,31.70
2018-12-26T04:42:22.537Z,30.90
2018-12-26T04:43:22.521Z,31.90
2018-12-26T04:44:22.516Z,30.00
2018-12-26T04:45:22.514Z,28.00
2018-12-26T04:46:22.514Z,31.00
2018-12-26T04:47:22.485Z,30.60
2018-12-26T04:48:22.462Z,29.10
2018-12-26T04:49:23.829Z,32.10
2018-12-26T04:50:22.466Z,28.60
2018-12-26T04:51:22.698Z,30.20
2018-12-26T04:52:22.426Z,31.30
2018-12-26T04:53:22.411Z,29.30
2018-12-26T04:54:22.409Z,30.50
2018-12-26T04:55:22.392Z,29.70
2018-12-26T04:56:22.415Z,31.70
2018-12-26T04:57:24.908Z,29.70
2018-12-26T04:58:22.369Z,31.60
2018-12-26T04:59:22.350Z,30.60
2018-12-26T05:00:22.338Z,30.60
2018-12-26T05:01:22.361Z,29.10
2018-12-26T05:02:22.323Z,30.90
2018-12-26T05:03:22.316Z,30.60
2018-12-26T05:04:22.298Z,29.20
2018-12-26T05:05:22.293Z,32.50
2018-12-26T05:06:22.312Z,30.50
2018-12-26T05:07:22.274Z,31.30
2018-12-26T05:08:22.258Z,31.40
2018-12-26T05:09:22.252Z,30.50
2018-12-26T05:10:22.237Z,30.60
2018-12-26T05:11:22.265Z,30.80
2018-12-26T05:12:22.216Z,31.20
2018-12-26T05:13:22.198Z,29.20
2018-12-26T05:14:22.313Z,30.50
2018-12-26T05:15:22.182Z,31.00
2018-12-26T05:16:22.435Z,33.60
2018-12-26T05:17:22.167Z,29.70
2018-12-26T05:18:22.152Z,29.80
2018-12-26T05:19:22.142Z,33.30
2018-12-26T05:20:22.125Z,30.90
2018-12-26T05:21:22.147Z,29.50
2018-12-26T05:22:22.103Z,30.30
2018-12-26T05:23:22.096Z,30.30
2018-12-26T05:24:22.086Z,29.60
2018-12-26T05:25:22.078Z,31.10
2018-12-26T05:26:22.081Z,30.40
2018-12-26T05:27:22.056Z,30.70
2018-12-26T05:28:22.039Z,30.60
2018-12-26T05:29:22.036Z,32.50
2018-12-26T05:30:22.024Z,31.00
2018-12-26T05:31:22.012Z,33.80
2018-12-26T05:32:22.004Z,33.00
2018-12-26T05:33:21.998Z,31.40
2018-12-26T05:34:21.982Z,29.80
2018-12-26T05:35:21.972Z,32.30
2018-12-26T05:36:21.960Z,32.20
2018-12-26T05:37:21.984Z,31.20
2018-12-26T05:38:22.123Z,32.20
2018-12-26T05:39:21.925Z,31.30
2018-12-26T05:40:21.911Z,30.40
2018-12-26T05:41:21.909Z,33.60
2018-12-26T05:42:21.909Z,31.00
2018-12-26T05:43:21.880Z,30.90
2018-12-26T05:44:21.871Z,32.20
2018-12-26T05:45:21.864Z,30.40
2018-12-26T05:46:21.844Z,30.20
2018-12-26T05:47:22.093Z,31.10
2018-12-26T05:48:21.837Z,30.90
2018-12-26T05:49:21.828Z,31.40
2018-12-26T05:50:21.808Z,32.10
2018-12-26T05:51:21.810Z,32.10
2018-12-26T05:52:21.782Z,30.20
2018-12-26T05:53:21.801Z,31.60
2018-12-26T05:54:21.770Z,31.90
2018-12-26T05:55:21.755Z,31.30
2018-12-26T05:56:22.682Z,31.30
2018-12-26T05:57:21.735Z,29.80
2018-12-26T05:58:21.761Z,31.00
2018-12-26T05:59:21.705Z,33.50
2018-12-26T06:00:21.705Z,34.40
2018-12-26T06:01:21.693Z,34.10
2018-12-26T06:02:21.681Z,34.30
2018-12-26T06:03:21.690Z,34.90
2018-12-26T06:04:21.648Z,35.40
2018-12-26T06:06:11.401Z,34.30
2018-12-26T06:07:12.386Z,36.10
2018-12-26T06:08:12.379Z,36.20
2018-12-26T06:09:12.403Z,37.20
2018-12-26T06:10:12.355Z,38.90
2018-12-26T06:11:12.352Z,39.60
2018-12-26T06:12:12.349Z,38.60
2018-12-26T06:13:12.321Z,39.00
2018-12-26T06:14:12.333Z,39.20
2018-12-26T06:15:12.317Z,40.20
2018-12-26T06:16:12.300Z,39.80
2018-12-26T06:17:12.284Z,41.50
2018-12-26T06:18:13.143Z,41.50
2018-12-26T06:19:12.286Z,39.40
2018-12-26T06:20:12.264Z,39.00
2018-12-26T06:21:12.271Z,42.40
2018-12-26T06:22:12.225Z,44.30
2018-12-26T06:23:12.211Z,44.70
2018-12-26T06:24:12.483Z,44.70
2018-12-26T06:25:12.209Z,46.60
2018-12-26T06:26:12.198Z,49.40
2018-12-26T06:27:12.184Z,49.60
2018-12-26T06:28:12.178Z,47.40
2018-12-26T06:29:12.184Z,52.00
2018-12-26T06:30:12.164Z,53.00
2018-12-26T06:31:12.128Z,51.30
2018-12-26T06:32:12.129Z,51.50
2018-12-26T06:33:12.123Z,55.50
2018-12-26T06:34:12.130Z,53.30
2018-12-26T06:35:12.087Z,56.80
2018-12-26T06:36:12.083Z,56.30
2018-12-26T06:37:12.064Z,58.80
2018-12-26T06:38:12.067Z,55.50
2018-12-26T06:39:12.073Z,57.90
2018-12-26T06:40:12.048Z,56.50
2018-12-26T06:41:12.038Z,59.80
2018-12-26T06:42:12.021Z,57.50
2018-12-26T06:43:12.010Z,59.30
2018-12-26T06:44:11.996Z,65.00
2018-12-26T06:45:11.983Z,60.00
2018-12-26T06:46:11.993Z,62.40
2018-12-26T06:47:11.992Z,63.30
2018-12-26T06:48:11.951Z,64.60
2018-12-26T06:49:11.943Z,62.30
2018-12-26T06:50:11.946Z,61.50
2018-12-26T06:51:11.929Z,66.20
2018-12-26T06:52:11.909Z,62.30
2018-12-26T06:53:11.907Z,61.70
2018-12-26T06:54:11.883Z,67.00
2018-12-26T06:55:11.888Z,62.40
2018-12-26T06:56:11.876Z,64.20
2018-12-26T06:57:11.857Z,63.90
2018-12-26T06:58:11.860Z,67.00
2018-12-26T06:59:11.826Z,67.00
2018-12-26T07:00:11.853Z,62.90
2018-12-26T07:01:11.809Z,62.40
2018-12-26T07:02:11.803Z,66.70
2018-12-26T07:03:11.791Z,65.30
2018-12-26T07:04:11.785Z,64.80
2018-12-26T07:05:11.786Z,69.10
2018-12-26T07:06:11.758Z,75.40
2018-12-26T07:07:11.756Z,77.10
2018-12-26T07:08:11.742Z,72.90
2018-12-26T07:09:11.749Z,70.30
2018-12-26T07:10:11.763Z,70.00
2018-12-26T07:11:11.710Z,71.10
2018-12-26T07:12:11.692Z,71.70
2018-12-26T07:13:11.704Z,70.40
2018-12-26T07:14:11.669Z,74.10
2018-12-26T07:15:11.687Z,69.70
2018-12-26T07:16:11.651Z,68.70
2018-12-26T07:17:11.651Z,74.10
2018-12-26T07:18:11.634Z,74.10
2018-12-26T07:19:11.614Z,75.60
2018-12-26T07:20:11.643Z,75.00
2018-12-26T07:21:11.603Z,80.10
2018-12-26T07:22:11.592Z,78.20
2018-12-26T07:23:11.575Z,75.30
2018-12-26T07:24:11.560Z,76.90
2018-12-26T07:25:11.581Z,70.00
2018-12-26T07:26:11.548Z,73.70
2018-12-26T07:27:11.534Z,73.30
2018-12-26T07:28:11.533Z,73.10
2018-12-26T07:29:11.521Z,69.40
2018-12-26T07:30:11.527Z,72.70
2018-12-26T07:31:11.504Z,74.30
2018-12-26T07:32:11.483Z,67.60
2018-12-26T07:33:11.475Z,70.40
2018-12-26T07:34:11.462Z,68.40
2018-12-26T07:35:11.486Z,68.30
2018-12-26T07:36:11.438Z,73.00
2018-12-26T07:37:11.534Z,66.90
2018-12-26T07:38:11.422Z,72.40
2018-12-26T07:39:11.412Z,72.50
2018-12-26T07:40:11.414Z,71.80
2018-12-26T07:41:11.396Z,67.00
2018-12-26T07:42:11.380Z,66.70
2018-12-26T07:43:11.371Z,69.90
2018-12-26T07:44:11.354Z,70.90
2018-12-26T07:45:11.370Z,72.50
2018-12-26T07:46:11.336Z,71.10
2018-12-26T07:47:11.327Z,68.10
2018-12-26T07:48:11.312Z,69.80
2018-12-26T07:49:11.306Z,71.90
2018-12-26T07:50:11.309Z,69.00
2018-12-26T07:51:11.293Z,71.80
2018-12-26T07:52:11.275Z,71.90
2018-12-26T07:53:11.259Z,74.10
2018-12-26T07:54:11.240Z,71.70
2018-12-26T07:55:11.270Z,70.10
2018-12-26T07:56:11.226Z,74.60
2018-12-26T07:57:11.220Z,75.40
2018-12-26T07:58:17.571Z,74.20
2018-12-26T07:59:11.201Z,75.20
2018-12-26T08:00:11.201Z,75.00
2018-12-26T08:01:11.181Z,73.80
2018-12-26T08:02:11.158Z,73.90
2018-12-26T08:03:11.159Z,75.50
2018-12-26T08:04:11.138Z,70.50
2018-12-26T08:05:11.162Z,74.70
2018-12-26T08:07:20.313Z,67.20
2018-12-26T08:08:21.301Z,74.50
2018-12-26T08:09:21.287Z,75.60
2018-12-26T08:10:21.296Z,74.10
2018-12-26T08:11:21.265Z,76.10
2018-12-26T08:12:21.252Z,73.10
2018-12-26T08:13:21.235Z,75.20
2018-12-26T08:14:21.231Z,72.80
2018-12-26T08:15:21.256Z,78.50
2018-12-26T08:16:21.214Z,78.40
2018-12-26T08:17:21.205Z,72.30
2018-12-26T08:18:21.193Z,75.80
2018-12-26T08:19:21.179Z,70.50
2018-12-26T08:20:21.190Z,72.60
2018-12-26T08:21:21.157Z,67.70
2018-12-26T08:22:21.152Z,75.20
2018-12-26T08:23:21.138Z,73.00
2018-12-26T08:24:21.121Z,75.20
2018-12-26T08:25:21.130Z,79.20
2018-12-26T08:26:21.116Z,70.80
2018-12-26T08:27:21.092Z,72.40
2018-12-26T08:28:26.607Z,73.70
2018-12-26T08:29:21.073Z,73.80
2018-12-26T08:30:21.073Z,72.90
2018-12-26T08:31:21.054Z,78.60
2018-12-26T08:32:21.053Z,71.50
2018-12-26T08:33:21.035Z,75.50
2018-12-26T08:34:21.014Z,71.60
2018-12-26T08:35:21.011Z,74.70
2018-12-26T08:36:21.003Z,76.90
2018-12-26T08:37:20.990Z,77.60
2018-12-26T08:38:20.972Z,75.80
2018-12-26T08:39:20.957Z,74.70
2018-12-26T08:40:20.957Z,79.40
2018-12-26T08:41:20.973Z,77.60
2018-12-26T08:42:20.926Z,74.10
2018-12-26T08:43:20.920Z,74.30
2018-12-26T08:44:20.911Z,74.20
2018-12-26T08:45:20.894Z,74.60
2018-12-26T08:46:20.920Z,76.70
2018-12-26T08:47:20.892Z,75.00
2018-12-26T08:48:20.869Z,76.60
2018-12-26T08:49:20.851Z,89.10
2018-12-26T08:50:20.841Z,84.50
2018-12-26T08:51:20.847Z,87.80
2018-12-26T08:52:20.825Z,88.40
2018-12-26T08:53:20.817Z,85.40
2018-12-26T08:54:20.807Z,81.30
2018-12-26T08:55:20.793Z,84.80
2018-12-26T08:56:20.800Z,79.90
2018-12-26T08:57:20.762Z,85.30
2018-12-26T08:58:20.751Z,77.90
2018-12-26T08:59:20.740Z,83.50
2018-12-26T09:00:20.734Z,78.70
2018-12-26T09:01:20.752Z,88.50
2018-12-26T09:02:20.720Z,83.30
2018-12-26T09:03:20.703Z,84.10
2018-12-26T09:04:20.693Z,81.50
2018-12-26T09:05:20.678Z,82.50
2018-12-26T09:06:20.682Z,81.30
2018-12-26T09:07:20.659Z,85.00
2018-12-26T09:08:20.638Z,86.40
2018-12-26T09:09:20.656Z,78.50
2018-12-26T09:10:20.618Z,79.10
2018-12-26T09:11:20.637Z,84.00
2018-12-26T09:12:20.603Z,88.00
2018-12-26T09:13:20.596Z,87.60
2018-12-26T09:14:20.590Z,88.70
2018-12-26T09:15:20.562Z,87.90
2018-12-26T09:16:20.575Z,85.40
2018-12-26T09:17:20.551Z,82.30
2018-12-26T09:18:20.535Z,84.30
2018-12-26T09:19:20.525Z,80.00
2018-12-26T09:20:20.517Z,83.00
2018-12-26T09:21:20.538Z,83.50
2018-12-26T09:22:20.490Z,68.90
2018-12-26T09:23:20.485Z,74.40
2018-12-26T09:24:20.477Z,73.60
2018-12-26T09:25:20.458Z,72.10
2018-12-26T09:26:20.462Z,71.00
2018-12-26T09:27:20.449Z,71.70
2018-12-26T09:28:20.434Z,70.70
2018-12-26T09:29:20.414Z,73.20
2018-12-26T09:30:20.416Z,72.70
2018-12-26T09:31:20.408Z,69.40
2018-12-26T09:32:20.389Z,69.70
2018-12-26T09:33:20.374Z,70.20
2018-12-26T09:34:20.362Z,72.90
2018-12-26T09:35:21.033Z,66.80
2018-12-26T09:36:20.353Z,66.20
2018-12-26T09:37:20.337Z,72.70
2018-12-26T09:38:20.321Z,70.00
2018-12-26T09:39:20.302Z,66.70
2018-12-26T09:40:20.297Z,67.70
2018-12-26T09:41:20.308Z,69.80
2018-12-26T09:42:20.284Z,66.80
2018-12-26T09:43:20.265Z,66.20
2018-12-26T09:44:20.249Z,68.80
2018-12-26T09:45:20.251Z,63.70
2018-12-26T09:46:20.253Z,61.40
2018-12-26T09:47:20.230Z,68.40
2018-12-26T09:48:20.233Z,62.70
2018-12-26T09:49:20.206Z,62.10
2018-12-26T09:50:20.191Z,64.40
2018-12-26T09:51:20.207Z,61.90
2018-12-26T09:52:20.173Z,66.00
2018-12-26T09:53:20.166Z,63.40
2018-12-26T09:54:20.142Z,64.40
2018-12-26T09:55:20.127Z,60.00
2018-12-26T09:56:20.139Z,66.80
2018-12-26T09:57:20.577Z,62.70
2018-12-26T09:58:20.099Z,63.40
2018-12-26T09:59:20.093Z,64.90
2018-12-26T10:00:20.084Z,67.10
2018-12-26T10:01:20.084Z,68.10
2018-12-26T10:02:20.075Z,71.70
2018-12-26T10:03:20.046Z,67.20
2018-12-26T10:04:20.031Z,69.90
2018-12-26T10:05:20.018Z,68.50
2018-12-26T10:06:20.017Z,68.70
2018-12-26T10:08:29.215Z,68.70
2018-12-26T10:09:30.212Z,73.70
2018-12-26T10:10:30.186Z,72.70
2018-12-26T10:11:30.206Z,79.80
2018-12-26T10:12:30.160Z,77.90
2018-12-26T10:13:30.161Z,76.70
2018-12-26T10:14:30.148Z,78.40
2018-12-26T10:15:30.129Z,77.00
2018-12-26T10:16:30.134Z,78.10
2018-12-26T10:17:30.126Z,76.10
2018-12-26T10:18:30.111Z,75.20
2018-12-26T10:19:30.082Z,81.70
2018-12-26T10:20:30.082Z,82.30
2018-12-26T10:21:30.087Z,82.60
2018-12-26T10:22:30.059Z,79.90
2018-12-26T10:23:30.138Z,88.40
2018-12-26T10:24:30.037Z,88.70
2018-12-26T10:25:30.025Z,90.80
2018-12-26T10:26:30.013Z,91.30
2018-12-26T10:27:30.006Z,88.90
2018-12-26T10:28:29.983Z,93.80
2018-12-26T10:29:29.981Z,83.90
2018-12-26T10:30:29.967Z,96.70
2018-12-26T10:31:29.967Z,87.10
2018-12-26T10:32:29.968Z,90.90
2018-12-26T10:33:29.942Z,98.60
2018-12-26T10:34:29.933Z,98.80
2018-12-26T10:35:29.932Z,89.60
2018-12-26T10:36:29.905Z,89.80
2018-12-26T10:37:29.992Z,95.80
2018-12-26T10:38:29.892Z,94.10
2018-12-26T10:39:29.877Z,99.50
2018-12-26T10:40:29.866Z,102.20
2018-12-26T10:41:29.846Z,108.30
2018-12-26T10:42:29.872Z,103.90
2018-12-26T10:43:29.832Z,98.10
2018-12-26T10:44:29.820Z,104.70
2018-12-26T10:45:29.798Z,110.80
2018-12-26T10:46:29.787Z,111.20
2018-12-26T10:47:29.801Z,110.90
2018-12-26T10:48:29.783Z,111.80
2018-12-26T10:49:29.767Z,114.10
2018-12-26T10:50:29.759Z,106.80
2018-12-26T10:51:29.744Z,108.20
2018-12-26T10:52:29.750Z,104.80
2018-12-26T10:53:29.713Z,106.00
2018-12-26T10:54:29.807Z,100.40
2018-12-26T10:55:29.703Z,103.50
2018-12-26T10:56:29.700Z,111.00
2018-12-26T10:57:29.698Z,106.80
2018-12-26T10:58:29.669Z,105.60
2018-12-26T10:59:29.646Z,110.50
2018-12-26T11:00:29.647Z,105.20
2018-12-26T11:01:29.636Z,106.50
2018-12-26T11:02:29.673Z,110.90
2018-12-26T11:03:29.619Z,101.50
2018-12-26T11:04:29.599Z,118.70
2018-12-26T11:05:29.740Z,114.10
2018-12-26T11:06:29.580Z,112.30
2018-12-26T11:07:29.591Z,104.70
2018-12-26T11:08:29.566Z,103.10
2018-12-26T11:09:29.551Z,106.10
2018-12-26T11:10:29.529Z,100.30
2018-12-26T11:11:29.517Z,107.00
2018-12-26T11:12:29.526Z,110.50
2018-12-26T11:13:29.504Z,115.80
2018-12-26T11:14:29.484Z,112.20
2018-12-26T11:15:29.477Z,100.50
2018-12-26T11:16:29.465Z,99.10
2018-12-26T11:17:29.485Z,100.70
2018-12-26T11:18:29.448Z,96.70
2018-12-26T11:19:29.430Z,106.80
2018-12-26T11:20:29.426Z,104.40
2018-12-26T11:21:29.405Z,109.40
2018-12-26T11:22:29.428Z,99.60
2018-12-26T11:23:29.396Z,112.40
2018-12-26T11:24:29.372Z,106.60
2018-12-26T11:25:29.363Z,97.30
2018-12-26T11:26:29.352Z,106.60
2018-12-26T11:27:29.364Z,104.20
2018-12-26T11:28:29.345Z,109.70
2018-12-26T11:29:29.333Z,107.70
2018-12-26T11:30:29.306Z,103.10
2018-12-26T11:31:29.296Z,103.10
2018-12-26T11:32:29.315Z,104.60
2018-12-26T11:33:29.294Z,102.20
2018-12-26T11:34:29.278Z,102.80
2018-12-26T11:35:29.264Z,102.70
2018-12-26T11:36:29.260Z,98.30
2018-12-26T11:37:29.263Z,104.10
2018-12-26T11:38:29.222Z,95.30
2018-12-26T11:39:29.221Z,103.70
2018-12-26T11:40:29.202Z,110.00
2018-12-26T11:41:29.185Z,107.20
2018-12-26T11:42:29.210Z,109.90
2018-12-26T11:43:29.181Z,99.90
2018-12-26T11:44:29.243Z,102.80
2018-12-26T11:45:29.157Z,105.20
2018-12-26T11:46:29.145Z,103.60
2018-12-26T11:47:29.152Z,97.00
2018-12-26T11:48:29.122Z,98.30
2018-12-26T11:49:29.103Z,100.80
2018-12-26T11:50:29.100Z,99.90
2018-12-26T11:51:29.092Z,100.40
2018-12-26T11:52:29.096Z,93.10
2018-12-26T11:53:29.056Z,98.30
2018-12-26T11:54:29.053Z,95.40
2018-12-26T11:55:29.048Z,99.80
2018-12-26T11:56:29.022Z,104.80
2018-12-26T11:57:29.018Z,99.90
2018-12-26T11:58:29.023Z,105.70
2018-12-26T11:59:29.001Z,101.40
2018-12-26T12:00:28.978Z,102.70
2018-12-26T12:01:28.968Z,98.60
2018-12-26T12:02:28.970Z,110.10
2018-12-26T12:03:28.979Z,104.90
2018-12-26T12:04:28.940Z,102.70
2018-12-26T12:05:28.923Z,106.50
2018-12-26T12:06:28.918Z,102.70
2018-12-26T12:07:28.911Z,100.60
2018-12-26T12:09:38.132Z,108.60
2018-12-26T12:10:39.085Z,106.70
2018-12-26T12:11:39.088Z,109.10
2018-12-26T12:12:39.085Z,103.80
2018-12-26T12:13:39.067Z,113.80
2018-12-26T12:14:39.079Z,110.30
2018-12-26T12:15:39.033Z,117.40
2018-12-26T12:16:39.032Z,119.70
2018-12-26T12:17:39.015Z,121.70
2018-12-26T12:18:39.010Z,142.10
2018-12-26T12:19:38.999Z,116.40
2018-12-26T12:20:39.034Z,142.30
2018-12-26T12:21:38.980Z,128.00
2018-12-26T12:22:38.960Z,126.60
2018-12-26T12:23:38.955Z,128.20
2018-12-26T12:24:38.944Z,135.70
2018-12-26T12:25:38.984Z,123.10
2018-12-26T12:26:38.925Z,126.90
2018-12-26T12:27:38.935Z,125.50
2018-12-26T12:28:38.893Z,148.30
2018-12-26T12:29:38.895Z,131.50
2018-12-26T12:30:38.912Z,130.40
2018-12-26T12:31:38.914Z,131.70
2018-12-26T12:32:38.872Z,112.50
2018-12-26T12:33:38.846Z,119.70
2018-12-26T12:34:38.826Z,133.00
2018-12-26T12:35:38.850Z,126.30
2018-12-26T12:36:38.813Z,116.50
2018-12-26T12:37:38.801Z,132.00
2018-12-26T12:38:38.791Z,118.30
2018-12-26T12:39:38.789Z,129.60
2018-12-26T12:40:38.803Z,122.40
2018-12-26T12:41:38.761Z,117.00
2018-12-26T12:42:38.751Z,119.10
2018-12-26T12:43:38.729Z,117.50
2018-12-26T12:44:38.730Z,122.10
2018-12-26T12:45:38.733Z,115.50
2018-12-26T12:46:38.708Z,115.90
2018-12-26T12:47:38.695Z,111.80
2018-12-26T12:48:38.675Z,117.90
2018-12-26T12:49:38.685Z,114.60
2018-12-26T12:50:38.685Z,113.40
2018-12-26T12:51:38.670Z,112.50
2018-12-26T12:52:38.645Z,111.00
2018-12-26T12:53:38.641Z,114.60
2018-12-26T12:54:38.620Z,115.40
2018-12-26T12:55:38.630Z,118.50
2018-12-26T12:56:38.608Z,114.50